sensor_id;sensor_type;location;lat;lon;timestamp;P1;durP1;ratioP1;P2;durP2;ratioP2
43819;SDS011;59678;52.476;6.046;2022-07-29T00:02:17;5.72;;;5.25;;
43819;SDS011;59678;52.476;6.046;2022-07-29T00:04:42;6.13;;;5.53;;
43819;SDS011;59678;52.476;6.046;2022-07-29T00:07:07;5.57;;;5.18;;
43819;SDS011;59678;52.476;6.046;2022-07-29T00:09:32;5.65;;;5.15;;
43819;SDS011;59678;52.476;6.046;2022-07-29T00:11:58;6.13;;;5.68;;
43819;SDS011;59678;52.476;6.046;2022-07-29T00:14:24;6.63;;;5.95;;
43819;SDS011;59678;52.476;6.046;2022-07-29T00:16:49;6.35;;;5.68;;
43819;SDS011;59678;52.476;6.046;2022-07-29T00:19:14;6.90;;;5.07;;
43819;SDS011;59678;52.476;6.046;2022-07-29T00:21:40;5.93;;;5.53;;
43819;SDS011;59678;52.476;6.046;2022-07-29T00:24:05;5.90;;;5.10;;
43819;SDS011;59678;52.476;6.046;2022-07-29T00:26:30;6.03;;;5.63;;
43819;SDS011;59678;52.476;6.046;2022-07-29T00:28:58;5.35;;;4.95;;
43819;SDS011;59678;52.476;6.046;2022-07-29T00:31:23;6.38;;;5.80;;
43819;SDS011;59678;52.476;6.046;2022-07-29T00:33:48;5.40;;;5.00;;
43819;SDS011;59678;52.476;6.046;2022-07-29T00:36:13;5.97;;;5.45;;
43819;SDS011;59678;52.476;6.046;2022-07-29T00:38:38;6.50;;;6.10;;
43819;SDS011;59678;52.476;6.046;2022-07-29T00:41:06;5.90;;;5.38;;
43819;SDS011;59678;52.476;6.046;2022-07-29T00:43:31;5.30;;;4.80;;
43819;SDS011;59678;52.476;6.046;2022-07-29T00:45:56;8.07;;;4.30;;
43819;SDS011;59678;52.476;6.046;2022-07-29T00:48:21;907.70;;;413.43;;
43819;SDS011;59678;52.476;6.046;2022-07-29T00:50:47;11.07;;;9.20;;
43819;SDS011;59678;52.476;6.046;2022-07-29T00:53:14;2.38;;;1.63;;
43819;SDS011;59678;52.476;6.046;2022-07-29T00:55:39;5.17;;;2.13;;
43819;SDS011;59678;52.476;6.046;2022-07-29T00:58:04;3.83;;;1.98;;
43819;SDS011;59678;52.476;6.046;2022-07-29T01:00:30;6.38;;;2.10;;
43819;SDS011;59678;52.476;6.046;2022-07-29T01:02:55;5.25;;;1.70;;
43819;SDS011;59678;52.476;6.046;2022-07-29T01:05:21;14.77;;;8.23;;
43819;SDS011;59678;52.476;6.046;2022-07-29T01:07:49;2.92;;;1.92;;
43819;SDS011;59678;52.476;6.046;2022-07-29T01:10:14;538.17;;;109.30;;
43819;SDS011;59678;52.476;6.046;2022-07-29T01:12:40;357.55;;;41.00;;
43819;SDS011;59678;52.476;6.046;2022-07-29T01:15:06;4.25;;;1.70;;
43819;SDS011;59678;52.476;6.046;2022-07-29T01:17:33;3.17;;;1.77;;
43819;SDS011;59678;52.476;6.046;2022-07-29T01:25:17;7.65;;;1.98;;
43819;SDS011;59678;52.476;6.046;2022-07-29T01:27:48;3.00;;;1.70;;
43819;SDS011;59678;52.476;6.046;2022-07-29T01:30:16;3.92;;;1.73;;
43819;SDS011;59678;52.476;6.046;2022-07-29T01:32:41;4.80;;;1.50;;
43819;SDS011;59678;52.476;6.046;2022-07-29T01:35:17;4.43;;;1.38;;
43819;SDS011;59678;52.476;6.046;2022-07-29T01:37:45;38.28;;;3.55;;
43819;SDS011;59678;52.476;6.046;2022-07-29T01:40:30;2.05;;;1.20;;
43819;SDS011;59678;52.476;6.046;2022-07-29T01:42:57;5.13;;;1.48;;
43819;SDS011;59678;52.476;6.046;2022-07-29T01:45:24;1999.90;;;999.90;;
43819;SDS011;59678;52.476;6.046;2022-07-29T01:50:19;2.67;;;1.60;;
43819;SDS011;59678;52.476;6.046;2022-07-29T01:52:47;2.95;;;1.52;;
43819;SDS011;59678;52.476;6.046;2022-07-29T01:55:14;4.20;;;1.40;;
43819;SDS011;59678;52.476;6.046;2022-07-29T01:57:42;14.02;;;12.73;;
43819;SDS011;59678;52.476;6.046;2022-07-29T02:00:08;15.60;;;14.63;;
43819;SDS011;59678;52.476;6.046;2022-07-29T02:02:33;410.38;;;367.77;;
43819;SDS011;59678;52.476;6.046;2022-07-29T02:05:00;14.10;;;13.10;;
43819;SDS011;59678;52.476;6.046;2022-07-29T02:07:27;13.88;;;12.77;;
43819;SDS011;59678;52.476;6.046;2022-07-29T02:09:53;831.35;;;772.38;;
43819;SDS011;59678;52.476;6.046;2022-07-29T02:12:19;2.63;;;1.40;;
43819;SDS011;59678;52.476;6.046;2022-07-29T02:14:47;10.90;;;1.48;;
43819;SDS011;59678;52.476;6.046;2022-07-29T02:17:13;472.70;;;67.60;;
43819;SDS011;59678;52.476;6.046;2022-07-29T02:19:41;643.47;;;65.63;;
43819;SDS011;59678;52.476;6.046;2022-07-29T02:22:07;354.10;;;44.75;;
43819;SDS011;59678;52.476;6.046;2022-07-29T02:24:33;930.40;;;162.82;;
43819;SDS011;59678;52.476;6.046;2022-07-29T02:27:00;254.55;;;92.85;;
43819;SDS011;59678;52.476;6.046;2022-07-29T02:29:26;142.13;;;20.30;;
43819;SDS011;59678;52.476;6.046;2022-07-29T02:31:53;352.05;;;289.38;;
43819;SDS011;59678;52.476;6.046;2022-07-29T02:34:20;1999.90;;;999.90;;
43819;SDS011;59678;52.476;6.046;2022-07-29T02:36:45;690.33;;;290.88;;
43819;SDS011;59678;52.476;6.046;2022-07-29T02:39:11;31.48;;;29.50;;
43819;SDS011;59678;52.476;6.046;2022-07-29T02:41:40;1999.90;;;999.90;;
43819;SDS011;59678;52.476;6.046;2022-07-29T02:44:08;1999.90;;;999.90;;
43819;SDS011;59678;52.476;6.046;2022-07-29T02:46:35;1999.90;;;999.90;;
43819;SDS011;59678;52.476;6.046;2022-07-29T02:54:07;1999.90;;;999.90;;
43819;SDS011;59678;52.476;6.046;2022-07-29T02:56:33;1999.90;;;999.90;;
43819;SDS011;59678;52.476;6.046;2022-07-29T02:59:04;1999.90;;;999.90;;
43819;SDS011;59678;52.476;6.046;2022-07-29T03:01:31;1999.90;;;999.90;;
43819;SDS011;59678;52.476;6.046;2022-07-29T03:03:57;1999.90;;;999.90;;
43819;SDS011;59678;52.476;6.046;2022-07-29T03:06:25;1999.90;;;999.90;;
43819;SDS011;59678;52.476;6.046;2022-07-29T03:08:52;1999.90;;;999.90;;
43819;SDS011;59678;52.476;6.046;2022-07-29T03:11:17;1999.90;;;999.90;;
43819;SDS011;59678;52.476;6.046;2022-07-29T03:13:43;1999.90;;;999.90;;
43819;SDS011;59678;52.476;6.046;2022-07-29T03:16:08;1999.90;;;999.90;;
43819;SDS011;59678;52.476;6.046;2022-07-29T03:18:34;1999.90;;;999.90;;
43819;SDS011;59678;52.476;6.046;2022-07-29T03:21:00;1999.90;;;999.90;;
43819;SDS011;59678;52.476;6.046;2022-07-29T03:23:25;1999.90;;;999.90;;
43819;SDS011;59678;52.476;6.046;2022-07-29T03:25:53;1999.90;;;999.90;;
43819;SDS011;59678;52.476;6.046;2022-07-29T03:28:18;1999.90;;;999.90;;
43819;SDS011;59678;52.476;6.046;2022-07-29T03:30:44;1999.90;;;999.90;;
43819;SDS011;59678;52.476;6.046;2022-07-29T03:33:09;1999.90;;;999.90;;
43819;SDS011;59678;52.476;6.046;2022-07-29T03:35:35;1999.90;;;999.90;;
43819;SDS011;59678;52.476;6.046;2022-07-29T03:38:00;1999.90;;;999.90;;
43819;SDS011;59678;52.476;6.046;2022-07-29T03:40:27;1999.90;;;999.90;;
43819;SDS011;59678;52.476;6.046;2022-07-29T03:42:55;1999.90;;;999.90;;
43819;SDS011;59678;52.476;6.046;2022-07-29T03:45:20;1999.90;;;999.90;;
43819;SDS011;59678;52.476;6.046;2022-07-29T03:47:48;1999.90;;;999.90;;
43819;SDS011;59678;52.476;6.046;2022-07-29T03:50:15;1999.90;;;999.90;;
43819;SDS011;59678;52.476;6.046;2022-07-29T03:52:41;1999.90;;;999.90;;
43819;SDS011;59678;52.476;6.046;2022-07-29T03:55:06;1999.90;;;999.90;;
43819;SDS011;59678;52.476;6.046;2022-07-29T03:57:32;1999.90;;;999.90;;
43819;SDS011;59678;52.476;6.046;2022-07-29T03:59:58;1999.90;;;999.90;;
43819;SDS011;59678;52.476;6.046;2022-07-29T04:02:24;1999.90;;;999.90;;
43819;SDS011;59678;52.476;6.046;2022-07-29T04:04:50;1999.90;;;999.90;;
43819;SDS011;59678;52.476;6.046;2022-07-29T04:07:15;1999.90;;;999.90;;
43819;SDS011;59678;52.476;6.046;2022-07-29T04:09:41;1999.90;;;999.90;;
43819;SDS011;59678;52.476;6.046;2022-07-29T04:12:06;1999.90;;;999.90;;
43819;SDS011;59678;52.476;6.046;2022-07-29T04:14:32;1999.90;;;999.90;;
43819;SDS011;59678;52.476;6.046;2022-07-29T04:16:58;1999.90;;;999.90;;
43819;SDS011;59678;52.476;6.046;2022-07-29T04:19:23;1999.90;;;999.90;;
43819;SDS011;59678;52.476;6.046;2022-07-29T04:21:48;1999.90;;;999.90;;
43819;SDS011;59678;52.476;6.046;2022-07-29T04:24:14;1999.90;;;999.90;;
43819;SDS011;59678;52.476;6.046;2022-07-29T04:26:39;1999.90;;;999.90;;
43819;SDS011;59678;52.476;6.046;2022-07-29T04:29:04;1999.90;;;999.90;;
43819;SDS011;59678;52.476;6.046;2022-07-29T04:31:29;1999.90;;;999.90;;
43819;SDS011;59678;52.476;6.046;2022-07-29T04:33:54;1999.90;;;999.90;;
43819;SDS011;59678;52.476;6.046;2022-07-29T04:36:20;1999.90;;;999.90;;
43819;SDS011;59678;52.476;6.046;2022-07-29T04:38:45;1999.90;;;999.90;;
43819;SDS011;59678;52.476;6.046;2022-07-29T04:41:10;1999.90;;;999.90;;
43819;SDS011;59678;52.476;6.046;2022-07-29T04:43:35;1999.90;;;999.90;;
43819;SDS011;59678;52.476;6.046;2022-07-29T04:46:01;1999.90;;;999.90;;
43819;SDS011;59678;52.476;6.046;2022-07-29T04:48:27;1999.90;;;999.90;;
43819;SDS011;59678;52.476;6.046;2022-07-29T04:50:52;1999.90;;;999.90;;
43819;SDS011;59678;52.476;6.046;2022-07-29T04:53:17;1999.90;;;999.90;;
43819;SDS011;59678;52.476;6.046;2022-07-29T04:55:43;1999.90;;;999.90;;
43819;SDS011;59678;52.476;6.046;2022-07-29T04:58:09;1999.90;;;999.90;;
43819;SDS011;59678;52.476;6.046;2022-07-29T05:00:34;1999.90;;;999.90;;
43819;SDS011;59678;52.476;6.046;2022-07-29T05:03:00;1999.90;;;999.90;;
43819;SDS011;59678;52.476;6.046;2022-07-29T05:05:25;1999.90;;;999.90;;
43819;SDS011;59678;52.476;6.046;2022-07-29T05:07:50;1999.90;;;999.90;;
43819;SDS011;59678;52.476;6.046;2022-07-29T05:10:15;1999.90;;;999.90;;
43819;SDS011;59678;52.476;6.046;2022-07-29T05:12:41;1999.90;;;999.90;;
43819;SDS011;59678;52.476;6.046;2022-07-29T05:15:06;1999.90;;;999.90;;
43819;SDS011;59678;52.476;6.046;2022-07-29T05:17:31;1999.90;;;999.90;;
43819;SDS011;59678;52.476;6.046;2022-07-29T05:19:56;1999.90;;;999.90;;
43819;SDS011;59678;52.476;6.046;2022-07-29T05:22:22;1999.90;;;999.90;;
43819;SDS011;59678;52.476;6.046;2022-07-29T05:24:47;1999.90;;;999.90;;
43819;SDS011;59678;52.476;6.046;2022-07-29T05:27:12;1999.90;;;999.90;;
43819;SDS011;59678;52.476;6.046;2022-07-29T05:29:38;1999.90;;;999.90;;
43819;SDS011;59678;52.476;6.046;2022-07-29T05:32:03;1999.90;;;999.90;;
43819;SDS011;59678;52.476;6.046;2022-07-29T05:34:28;1999.90;;;999.90;;
43819;SDS011;59678;52.476;6.046;2022-07-29T05:36:54;1999.90;;;999.90;;
43819;SDS011;59678;52.476;6.046;2022-07-29T05:39:19;1999.90;;;999.90;;
43819;SDS011;59678;52.476;6.046;2022-07-29T05:41:44;1999.90;;;999.90;;
43819;SDS011;59678;52.476;6.046;2022-07-29T05:44:09;1999.90;;;999.90;;
43819;SDS011;59678;52.476;6.046;2022-07-29T05:46:35;1999.90;;;999.90;;
43819;SDS011;59678;52.476;6.046;2022-07-29T05:49:00;1999.90;;;999.90;;
43819;SDS011;59678;52.476;6.046;2022-07-29T05:51:26;1999.90;;;999.90;;
43819;SDS011;59678;52.476;6.046;2022-07-29T05:53:51;1999.90;;;999.90;;
43819;SDS011;59678;52.476;6.046;2022-07-29T05:56:16;1999.90;;;999.90;;
43819;SDS011;59678;52.476;6.046;2022-07-29T05:58:41;1999.90;;;999.90;;
43819;SDS011;59678;52.476;6.046;2022-07-29T06:01:06;1999.90;;;999.90;;
43819;SDS011;59678;52.476;6.046;2022-07-29T06:03:32;1999.90;;;999.90;;
43819;SDS011;59678;52.476;6.046;2022-07-29T06:05:57;1999.90;;;999.90;;
43819;SDS011;59678;52.476;6.046;2022-07-29T06:08:22;1999.90;;;999.90;;
43819;SDS011;59678;52.476;6.046;2022-07-29T06:10:48;1999.90;;;999.90;;
43819;SDS011;59678;52.476;6.046;2022-07-29T06:13:13;1999.90;;;999.90;;
43819;SDS011;59678;52.476;6.046;2022-07-29T06:15:40;1999.90;;;999.90;;
43819;SDS011;59678;52.476;6.046;2022-07-29T06:18:06;1999.90;;;999.90;;
43819;SDS011;59678;52.476;6.046;2022-07-29T06:20:34;1999.90;;;999.90;;
43819;SDS011;59678;52.476;6.046;2022-07-29T06:22:59;1999.90;;;999.90;;
43819;SDS011;59678;52.476;6.046;2022-07-29T06:25:24;1999.90;;;999.90;;
43819;SDS011;59678;52.476;6.046;2022-07-29T06:27:50;1999.90;;;999.90;;
43819;SDS011;59678;52.476;6.046;2022-07-29T06:30:15;1999.90;;;999.90;;
43819;SDS011;59678;52.476;6.046;2022-07-29T06:32:40;1999.90;;;999.90;;
43819;SDS011;59678;52.476;6.046;2022-07-29T06:35:06;1999.90;;;999.90;;
43819;SDS011;59678;52.476;6.046;2022-07-29T06:37:31;1999.90;;;999.90;;
43819;SDS011;59678;52.476;6.046;2022-07-29T06:39:56;1999.90;;;999.90;;
43819;SDS011;59678;52.476;6.046;2022-07-29T06:42:44;1999.90;;;999.90;;
43819;SDS011;59678;52.476;6.046;2022-07-29T06:45:10;1999.90;;;999.90;;
43819;SDS011;59678;52.476;6.046;2022-07-29T06:47:35;1999.90;;;999.90;;
43819;SDS011;59678;52.476;6.046;2022-07-29T06:50:00;1999.90;;;999.90;;
43819;SDS011;59678;52.476;6.046;2022-07-29T06:52:25;1999.90;;;999.90;;
43819;SDS011;59678;52.476;6.046;2022-07-29T06:54:51;1999.90;;;999.90;;
43819;SDS011;59678;52.476;6.046;2022-07-29T06:57:16;1999.90;;;999.90;;
43819;SDS011;59678;52.476;6.046;2022-07-29T06:59:41;1999.90;;;999.90;;
43819;SDS011;59678;52.476;6.046;2022-07-29T07:02:06;1999.90;;;999.90;;
43819;SDS011;59678;52.476;6.046;2022-07-29T07:04:31;1999.90;;;999.90;;
43819;SDS011;59678;52.476;6.046;2022-07-29T07:06:57;1999.90;;;999.90;;
43819;SDS011;59678;52.476;6.046;2022-07-29T07:09:22;1999.90;;;999.90;;
43819;SDS011;59678;52.476;6.046;2022-07-29T07:11:47;1999.90;;;999.90;;
43819;SDS011;59678;52.476;6.046;2022-07-29T07:14:13;1999.90;;;999.90;;
43819;SDS011;59678;52.476;6.046;2022-07-29T07:16:38;1999.90;;;999.90;;
43819;SDS011;59678;52.476;6.046;2022-07-29T07:19:03;1999.90;;;999.90;;
43819;SDS011;59678;52.476;6.046;2022-07-29T07:21:29;1999.90;;;999.90;;
43819;SDS011;59678;52.476;6.046;2022-07-29T07:23:54;1999.90;;;999.90;;
43819;SDS011;59678;52.476;6.046;2022-07-29T07:26:19;1999.90;;;999.90;;
43819;SDS011;59678;52.476;6.046;2022-07-29T07:28:44;1999.90;;;999.90;;
43819;SDS011;59678;52.476;6.046;2022-07-29T07:31:10;1999.90;;;999.90;;
43819;SDS011;59678;52.476;6.046;2022-07-29T07:33:35;1999.90;;;999.90;;
43819;SDS011;59678;52.476;6.046;2022-07-29T07:36:00;1999.90;;;999.90;;
43819;SDS011;59678;52.476;6.046;2022-07-29T07:38:26;1999.90;;;999.90;;
43819;SDS011;59678;52.476;6.046;2022-07-29T07:40:51;1999.90;;;999.90;;
43819;SDS011;59678;52.476;6.046;2022-07-29T07:43:16;1999.90;;;999.90;;
43819;SDS011;59678;52.476;6.046;2022-07-29T07:45:41;1999.90;;;999.90;;
43819;SDS011;59678;52.476;6.046;2022-07-29T07:48:06;1999.90;;;999.90;;
43819;SDS011;59678;52.476;6.046;2022-07-29T07:50:35;1999.90;;;999.90;;
43819;SDS011;59678;52.476;6.046;2022-07-29T07:53:00;1999.90;;;999.90;;
43819;SDS011;59678;52.476;6.046;2022-07-29T07:55:27;1999.90;;;999.90;;
43819;SDS011;59678;52.476;6.046;2022-07-29T07:57:53;1999.90;;;999.90;;
43819;SDS011;59678;52.476;6.046;2022-07-29T08:00:18;1999.90;;;999.90;;
43819;SDS011;59678;52.476;6.046;2022-07-29T08:02:43;1999.90;;;999.90;;
43819;SDS011;59678;52.476;6.046;2022-07-29T08:05:10;1999.90;;;999.90;;
43819;SDS011;59678;52.476;6.046;2022-07-29T08:07:36;1999.90;;;999.90;;
43819;SDS011;59678;52.476;6.046;2022-07-29T08:10:02;1999.90;;;999.90;;
43819;SDS011;59678;52.476;6.046;2022-07-29T08:12:27;1999.90;;;999.90;;
43819;SDS011;59678;52.476;6.046;2022-07-29T08:14:53;1999.90;;;999.90;;
43819;SDS011;59678;52.476;6.046;2022-07-29T08:17:18;1999.90;;;999.90;;
43819;SDS011;59678;52.476;6.046;2022-07-29T08:19:44;1999.90;;;999.90;;
43819;SDS011;59678;52.476;6.046;2022-07-29T08:22:09;1999.90;;;999.90;;
43819;SDS011;59678;52.476;6.046;2022-07-29T08:24:35;1999.90;;;999.90;;
43819;SDS011;59678;52.476;6.046;2022-07-29T08:27:11;1999.90;;;999.90;;
43819;SDS011;59678;52.476;6.046;2022-07-29T08:29:36;1999.90;;;999.90;;
43819;SDS011;59678;52.476;6.046;2022-07-29T08:32:02;1999.90;;;999.90;;
43819;SDS011;59678;52.476;6.046;2022-07-29T08:34:27;1999.90;;;999.90;;
43819;SDS011;59678;52.476;6.046;2022-07-29T08:36:53;1999.90;;;999.90;;
43819;SDS011;59678;52.476;6.046;2022-07-29T08:39:18;1999.90;;;999.90;;
43819;SDS011;59678;52.476;6.046;2022-07-29T08:41:44;1999.90;;;999.90;;
43819;SDS011;59678;52.476;6.046;2022-07-29T08:44:09;1999.90;;;999.90;;
43819;SDS011;59678;52.476;6.046;2022-07-29T08:46:37;1999.90;;;999.90;;
43819;SDS011;59678;52.476;6.046;2022-07-29T08:49:02;1999.90;;;999.90;;
43819;SDS011;59678;52.476;6.046;2022-07-29T08:51:27;1999.90;;;999.90;;
43819;SDS011;59678;52.476;6.046;2022-07-29T08:53:53;1999.90;;;999.90;;
43819;SDS011;59678;52.476;6.046;2022-07-29T08:56:20;1999.90;;;999.90;;
43819;SDS011;59678;52.476;6.046;2022-07-29T08:58:46;1999.90;;;999.90;;
43819;SDS011;59678;52.476;6.046;2022-07-29T09:01:12;1999.90;;;999.90;;
43819;SDS011;59678;52.476;6.046;2022-07-29T09:03:39;1999.90;;;999.90;;
43819;SDS011;59678;52.476;6.046;2022-07-29T09:06:04;1999.90;;;999.90;;
43819;SDS011;59678;52.476;6.046;2022-07-29T09:08:30;1999.90;;;999.90;;
43819;SDS011;59678;52.476;6.046;2022-07-29T09:10:56;1999.90;;;999.90;;
43819;SDS011;59678;52.476;6.046;2022-07-29T09:13:22;1999.90;;;999.90;;
43819;SDS011;59678;52.476;6.046;2022-07-29T09:15:47;1999.90;;;999.90;;
43819;SDS011;59678;52.476;6.046;2022-07-29T09:18:32;1999.90;;;999.90;;
43819;SDS011;59678;52.476;6.046;2022-07-29T09:20:57;1999.90;;;999.90;;
43819;SDS011;59678;52.476;6.046;2022-07-29T09:23:58;1999.90;;;999.90;;
43819;SDS011;59678;52.476;6.046;2022-07-29T09:26:27;1999.90;;;999.90;;
43819;SDS011;59678;52.476;6.046;2022-07-29T09:28:52;1999.90;;;999.90;;
43819;SDS011;59678;52.476;6.046;2022-07-29T09:31:17;1999.90;;;999.90;;
43819;SDS011;59678;52.476;6.046;2022-07-29T09:33:48;1999.90;;;999.90;;
43819;SDS011;59678;52.476;6.046;2022-07-29T09:36:15;1999.90;;;999.90;;
43819;SDS011;59678;52.476;6.046;2022-07-29T09:38:40;1999.90;;;999.90;;
43819;SDS011;59678;52.476;6.046;2022-07-29T09:41:06;1999.90;;;999.90;;
43819;SDS011;59678;52.476;6.046;2022-07-29T09:43:33;1999.90;;;999.90;;
43819;SDS011;59678;52.476;6.046;2022-07-29T09:46:13;1999.90;;;999.90;;
43819;SDS011;59678;52.476;6.046;2022-07-29T09:48:39;1999.90;;;999.90;;
43819;SDS011;59678;52.476;6.046;2022-07-29T09:51:04;1999.90;;;999.90;;
43819;SDS011;59678;52.476;6.046;2022-07-29T09:53:37;1999.90;;;999.90;;
43819;SDS011;59678;52.476;6.046;2022-07-29T09:56:06;1999.90;;;999.90;;
43819;SDS011;59678;52.476;6.046;2022-07-29T09:58:31;1999.90;;;999.90;;
43819;SDS011;59678;52.476;6.046;2022-07-29T10:00:58;1999.90;;;999.90;;
43819;SDS011;59678;52.476;6.046;2022-07-29T10:03:23;1999.90;;;999.90;;
43819;SDS011;59678;52.476;6.046;2022-07-29T10:06:08;1999.90;;;999.90;;
43819;SDS011;59678;52.476;6.046;2022-07-29T10:08:33;1999.90;;;999.90;;
43819;SDS011;59678;52.476;6.046;2022-07-29T10:11:09;1999.90;;;999.90;;
43819;SDS011;59678;52.476;6.046;2022-07-29T10:13:34;1999.90;;;999.90;;
43819;SDS011;59678;52.476;6.046;2022-07-29T10:15:59;1999.90;;;999.90;;
43819;SDS011;59678;52.476;6.046;2022-07-29T10:18:25;1999.90;;;999.90;;
43819;SDS011;59678;52.476;6.046;2022-07-29T10:20:50;1999.90;;;999.90;;
43819;SDS011;59678;52.476;6.046;2022-07-29T10:23:16;1999.90;;;999.90;;
43819;SDS011;59678;52.476;6.046;2022-07-29T10:25:41;1999.90;;;999.90;;
43819;SDS011;59678;52.476;6.046;2022-07-29T10:28:06;1999.90;;;999.90;;
43819;SDS011;59678;52.476;6.046;2022-07-29T10:30:31;1999.90;;;999.90;;
43819;SDS011;59678;52.476;6.046;2022-07-29T10:33:00;1999.90;;;999.90;;
43819;SDS011;59678;52.476;6.046;2022-07-29T10:35:44;1999.90;;;999.90;;
43819;SDS011;59678;52.476;6.046;2022-07-29T10:40:59;1999.90;;;999.90;;
43819;SDS011;59678;52.476;6.046;2022-07-29T10:43:44;1999.90;;;999.90;;
43819;SDS011;59678;52.476;6.046;2022-07-29T10:46:11;1999.90;;;999.90;;
43819;SDS011;59678;52.476;6.046;2022-07-29T10:51:20;1999.90;;;999.90;;
43819;SDS011;59678;52.476;6.046;2022-07-29T10:53:46;1999.90;;;999.90;;
43819;SDS011;59678;52.476;6.046;2022-07-29T10:56:26;1999.90;;;999.90;;
43819;SDS011;59678;52.476;6.046;2022-07-29T11:01:35;1999.90;;;999.90;;
43819;SDS011;59678;52.476;6.046;2022-07-29T11:04:00;1999.90;;;999.90;;
43819;SDS011;59678;52.476;6.046;2022-07-29T11:06:26;1999.90;;;999.90;;
43819;SDS011;59678;52.476;6.046;2022-07-29T11:09:15;1999.90;;;999.90;;
43819;SDS011;59678;52.476;6.046;2022-07-29T11:11:41;1999.90;;;999.90;;
43819;SDS011;59678;52.476;6.046;2022-07-29T11:14:07;1999.90;;;999.90;;
43819;SDS011;59678;52.476;6.046;2022-07-29T11:16:57;1999.90;;;999.90;;
43819;SDS011;59678;52.476;6.046;2022-07-29T11:19:21;1999.90;;;999.90;;
43819;SDS011;59678;52.476;6.046;2022-07-29T11:21:46;1999.90;;;999.90;;
43819;SDS011;59678;52.476;6.046;2022-07-29T11:24:19;1999.90;;;999.90;;
43819;SDS011;59678;52.476;6.046;2022-07-29T11:26:45;1999.90;;;999.90;;
43819;SDS011;59678;52.476;6.046;2022-07-29T11:29:20;1999.90;;;999.90;;
43819;SDS011;59678;52.476;6.046;2022-07-29T11:31:48;1999.90;;;999.90;;
43819;SDS011;59678;52.476;6.046;2022-07-29T11:39:26;1999.90;;;999.90;;
43819;SDS011;59678;52.476;6.046;2022-07-29T11:41:51;1999.90;;;999.90;;
43819;SDS011;59678;52.476;6.046;2022-07-29T11:44:17;1999.90;;;999.90;;
43819;SDS011;59678;52.476;6.046;2022-07-29T11:46:49;1999.90;;;999.90;;
43819;SDS011;59678;52.476;6.046;2022-07-29T11:49:24;1999.90;;;999.90;;
43819;SDS011;59678;52.476;6.046;2022-07-29T11:51:54;1999.90;;;999.90;;
43819;SDS011;59678;52.476;6.046;2022-07-29T11:54:26;1999.90;;;999.90;;
43819;SDS011;59678;52.476;6.046;2022-07-29T11:56:55;1999.90;;;999.90;;
43819;SDS011;59678;52.476;6.046;2022-07-29T11:59:21;1999.90;;;999.90;;
43819;SDS011;59678;52.476;6.046;2022-07-29T12:01:56;1999.90;;;999.90;;
43819;SDS011;59678;52.476;6.046;2022-07-29T12:04:22;1999.90;;;999.90;;
43819;SDS011;59678;52.476;6.046;2022-07-29T12:06:51;1999.90;;;999.90;;
43819;SDS011;59678;52.476;6.046;2022-07-29T12:09:17;1999.90;;;999.90;;
43819;SDS011;59678;52.476;6.046;2022-07-29T12:11:43;1999.90;;;999.90;;
43819;SDS011;59678;52.476;6.046;2022-07-29T12:14:08;1999.90;;;999.90;;
43819;SDS011;59678;52.476;6.046;2022-07-29T12:16:36;1999.90;;;999.90;;
43819;SDS011;59678;52.476;6.046;2022-07-29T12:19:02;1999.90;;;999.90;;
43819;SDS011;59678;52.476;6.046;2022-07-29T12:21:28;1999.90;;;999.90;;
43819;SDS011;59678;52.476;6.046;2022-07-29T12:23:54;1999.90;;;999.90;;
43819;SDS011;59678;52.476;6.046;2022-07-29T12:26:19;1999.90;;;999.90;;
43819;SDS011;59678;52.476;6.046;2022-07-29T12:28:45;1999.90;;;999.90;;
43819;SDS011;59678;52.476;6.046;2022-07-29T12:31:13;1999.90;;;999.90;;
43819;SDS011;59678;52.476;6.046;2022-07-29T12:33:39;1999.90;;;999.90;;
43819;SDS011;59678;52.476;6.046;2022-07-29T12:36:04;1999.90;;;999.90;;
43819;SDS011;59678;52.476;6.046;2022-07-29T12:38:29;1999.90;;;999.90;;
43819;SDS011;59678;52.476;6.046;2022-07-29T12:40:55;1999.90;;;999.90;;
43819;SDS011;59678;52.476;6.046;2022-07-29T12:43:24;1999.90;;;999.90;;
43819;SDS011;59678;52.476;6.046;2022-07-29T12:45:53;1999.90;;;999.90;;
43819;SDS011;59678;52.476;6.046;2022-07-29T12:48:38;1999.90;;;999.90;;
43819;SDS011;59678;52.476;6.046;2022-07-29T12:51:03;1999.90;;;999.90;;
43819;SDS011;59678;52.476;6.046;2022-07-29T12:53:29;1999.90;;;999.90;;
43819;SDS011;59678;52.476;6.046;2022-07-29T12:55:55;1999.90;;;999.90;;
43819;SDS011;59678;52.476;6.046;2022-07-29T12:58:36;1999.90;;;999.90;;
43819;SDS011;59678;52.476;6.046;2022-07-29T13:03:27;1999.90;;;999.90;;
43819;SDS011;59678;52.476;6.046;2022-07-29T13:05:53;1999.90;;;999.90;;
43819;SDS011;59678;52.476;6.046;2022-07-29T13:08:18;1999.90;;;999.90;;
43819;SDS011;59678;52.476;6.046;2022-07-29T13:10:44;1999.90;;;999.90;;
43819;SDS011;59678;52.476;6.046;2022-07-29T13:13:11;1999.90;;;999.90;;
43819;SDS011;59678;52.476;6.046;2022-07-29T13:15:43;1999.90;;;999.90;;
43819;SDS011;59678;52.476;6.046;2022-07-29T13:23:18;1999.90;;;999.90;;
43819;SDS011;59678;52.476;6.046;2022-07-29T13:25:43;1999.90;;;999.90;;
43819;SDS011;59678;52.476;6.046;2022-07-29T13:28:08;1999.90;;;999.90;;
43819;SDS011;59678;52.476;6.046;2022-07-29T13:30:34;1999.90;;;999.90;;
43819;SDS011;59678;52.476;6.046;2022-07-29T13:32:59;1999.90;;;999.90;;
43819;SDS011;59678;52.476;6.046;2022-07-29T13:35:24;1999.90;;;999.90;;
43819;SDS011;59678;52.476;6.046;2022-07-29T13:37:50;1999.90;;;999.90;;
43819;SDS011;59678;52.476;6.046;2022-07-29T13:40:15;1999.90;;;999.90;;
43819;SDS011;59678;52.476;6.046;2022-07-29T13:42:40;1999.90;;;999.90;;
43819;SDS011;59678;52.476;6.046;2022-07-29T13:45:06;1999.90;;;999.90;;
43819;SDS011;59678;52.476;6.046;2022-07-29T13:47:33;1999.90;;;999.90;;
43819;SDS011;59678;52.476;6.046;2022-07-29T13:49:59;1999.90;;;999.90;;
43819;SDS011;59678;52.476;6.046;2022-07-29T13:52:25;1999.90;;;999.90;;
43819;SDS011;59678;52.476;6.046;2022-07-29T13:54:50;1999.90;;;999.90;;
43819;SDS011;59678;52.476;6.046;2022-07-29T13:57:15;1999.90;;;999.90;;
43819;SDS011;59678;52.476;6.046;2022-07-29T13:59:41;1999.90;;;999.90;;
43819;SDS011;59678;52.476;6.046;2022-07-29T14:02:06;1999.90;;;999.90;;
43819;SDS011;59678;52.476;6.046;2022-07-29T14:04:32;1999.90;;;999.90;;
43819;SDS011;59678;52.476;6.046;2022-07-29T14:06:58;1999.90;;;999.90;;
43819;SDS011;59678;52.476;6.046;2022-07-29T14:09:23;1999.90;;;999.90;;
43819;SDS011;59678;52.476;6.046;2022-07-29T14:11:49;1999.90;;;999.90;;
43819;SDS011;59678;52.476;6.046;2022-07-29T14:14:16;1999.90;;;999.90;;
43819;SDS011;59678;52.476;6.046;2022-07-29T14:16:41;1999.90;;;999.90;;
43819;SDS011;59678;52.476;6.046;2022-07-29T14:19:06;1999.90;;;999.90;;
43819;SDS011;59678;52.476;6.046;2022-07-29T14:21:32;1999.90;;;999.90;;
43819;SDS011;59678;52.476;6.046;2022-07-29T14:23:57;1999.90;;;999.90;;
43819;SDS011;59678;52.476;6.046;2022-07-29T14:26:22;1999.90;;;999.90;;